createdAt,value
2019-04-16T00:00:21.863Z,69.25
2019-04-16T00:01:21.871Z,69.60
2019-04-16T00:02:21.854Z,69.60
2019-04-16T00:03:23.094Z,70.01
2019-04-16T00:04:22.250Z,69.39
2019-04-16T00:05:21.802Z,69.77
2019-04-16T00:06:21.804Z,69.98
2019-04-16T00:07:21.777Z,69.60
2019-04-16T00:08:27.882Z,69.60
2019-04-16T00:09:22.771Z,69.15
2019-04-16T00:10:21.758Z,69.29
2019-04-16T00:11:21.760Z,69.49
2019-04-16T00:12:21.720Z,69.60
2019-04-16T00:13:21.733Z,70.11
2019-04-16T00:14:21.705Z,70.01
2019-04-16T00:15:21.688Z,69.90
2019-04-16T00:16:21.736Z,70.11
2019-04-16T00:17:21.669Z,69.49
2019-04-16T00:18:21.655Z,69.49
2019-04-16T00:19:21.656Z,70.01
2019-04-16T00:20:21.642Z,69.49
2019-04-16T00:21:21.641Z,69.70
2019-04-16T00:22:21.613Z,69.49
2019-04-16T00:23:21.596Z,69.90
2019-04-16T00:24:21.588Z,70.01
2019-04-16T00:25:21.600Z,69.49
2019-04-16T00:26:26.471Z,69.90
2019-04-16T00:27:22.569Z,69.49
2019-04-16T00:28:21.550Z,69.60
2019-04-16T00:29:21.550Z,69.39
2019-04-16T00:30:21.535Z,69.80
2019-04-16T00:31:21.530Z,69.49
2019-04-16T00:32:21.528Z,69.39
2019-04-16T00:33:21.507Z,69.90
2019-04-16T00:34:21.492Z,70.11
2019-04-16T00:35:21.479Z,69.90
2019-04-16T00:36:21.449Z,70.01
2019-04-16T00:37:21.654Z,70.01
2019-04-16T00:38:22.634Z,69.80
2019-04-16T00:39:24.251Z,70.11
2019-04-16T00:40:21.423Z,70.21
2019-04-16T00:41:21.410Z,69.70
2019-04-16T00:42:21.423Z,69.60
2019-04-16T00:43:21.401Z,69.90
2019-04-16T00:44:21.373Z,70.04
2019-04-16T00:45:21.378Z,70.11
2019-04-16T00:46:21.352Z,70.21
2019-04-16T00:47:21.329Z,70.01
2019-04-16T00:48:21.336Z,70.21
2019-04-16T00:49:23.898Z,70.21
2019-04-16T00:50:21.359Z,69.73
2019-04-16T00:51:21.348Z,70.25
2019-04-16T00:52:21.317Z,70.01
2019-04-16T00:53:21.302Z,70.01
2019-04-16T00:54:21.256Z,69.73
2019-04-16T00:55:21.255Z,70.25
2019-04-16T00:56:21.252Z,69.42
2019-04-16T00:57:21.251Z,70.15
2019-04-16T00:58:21.633Z,70.46
2019-04-16T00:59:21.355Z,70.04
2019-04-16T01:00:21.203Z,69.53
2019-04-16T01:01:21.193Z,70.56
2019-04-16T01:02:21.187Z,70.04
2019-04-16T01:03:21.192Z,70.46
2019-04-16T01:04:21.172Z,70.36
2019-04-16T01:05:21.149Z,70.25
2019-04-16T01:06:21.144Z,70.04
2019-04-16T01:07:21.141Z,70.04
2019-04-16T01:08:21.137Z,69.63
2019-04-16T01:09:21.135Z,70.97
2019-04-16T01:10:21.179Z,70.18
2019-04-16T01:11:21.083Z,70.80
2019-04-16T01:12:21.063Z,70.76
2019-04-16T01:13:21.674Z,70.90
2019-04-16T01:14:21.056Z,70.80
2019-04-16T01:15:21.043Z,71.01
2019-04-16T01:16:21.030Z,70.90
2019-04-16T01:17:21.003Z,70.90
2019-04-16T01:18:21.008Z,70.90
2019-04-16T01:19:21.028Z,70.90
2019-04-16T01:20:20.993Z,70.39
2019-04-16T01:21:20.980Z,70.28
2019-04-16T01:22:20.970Z,70.18
2019-04-16T01:23:20.943Z,69.66
2019-04-16T01:24:21.171Z,70.67
2019-04-16T01:25:23.301Z,71.01
2019-04-16T01:26:20.913Z,70.80
2019-04-16T01:27:20.938Z,71.01
2019-04-16T01:28:20.900Z,70.18
2019-04-16T01:29:20.889Z,70.70
2019-04-16T01:30:20.876Z,70.18
2019-04-16T01:31:20.856Z,70.07
2019-04-16T01:32:20.855Z,71.01
2019-04-16T01:33:20.858Z,71.01
2019-04-16T01:34:20.834Z,70.28
2019-04-16T01:35:20.815Z,70.90
2019-04-16T01:36:22.934Z,71.01
2019-04-16T01:37:25.599Z,70.90
2019-04-16T01:38:21.781Z,70.80
2019-04-16T01:39:20.777Z,71.11
2019-04-16T01:40:20.764Z,71.01
2019-04-16T01:41:21.988Z,70.80
2019-04-16T01:42:23.385Z,70.39
2019-04-16T01:43:25.530Z,70.39
2019-04-16T01:44:21.717Z,70.18
2019-04-16T01:45:20.702Z,70.31
2019-04-16T01:46:20.725Z,70.94
2019-04-16T01:47:20.705Z,70.94
2019-04-16T01:48:20.684Z,71.14
2019-04-16T01:49:20.658Z,70.83
2019-04-16T01:50:20.649Z,70.73
2019-04-16T01:51:20.657Z,71.14
2019-04-16T01:52:20.658Z,70.94
2019-04-16T01:53:21.112Z,70.94
2019-04-16T01:54:22.927Z,70.62
2019-04-16T01:55:20.586Z,70.73
2019-04-16T01:56:20.576Z,70.83
2019-04-16T01:57:20.601Z,70.73
2019-04-16T01:58:20.557Z,70.73
2019-04-16T01:59:20.558Z,70.62
2019-04-16T02:00:20.553Z,69.69
2019-04-16T02:01:20.540Z,69.69
2019-04-16T02:02:20.532Z,69.59
2019-04-16T02:03:20.526Z,70.10
2019-04-16T02:04:20.596Z,69.69
2019-04-16T02:05:23.143Z,69.69
2019-04-16T02:06:20.482Z,69.69
2019-04-16T02:07:20.486Z,69.48
2019-04-16T02:08:20.475Z,69.17
2019-04-16T02:09:22.662Z,69.07
2019-04-16T02:10:20.424Z,69.79
2019-04-16T02:11:20.427Z,69.38
2019-04-16T02:12:20.421Z,68.96
2019-04-16T02:13:20.426Z,69.17
2019-04-16T02:14:22.235Z,69.27
2019-04-16T02:15:21.954Z,68.44
2019-04-16T02:16:22.429Z,68.34
2019-04-16T02:17:20.357Z,68.34
2019-04-16T02:18:20.367Z,67.82
2019-04-16T02:19:20.355Z,68.34
2019-04-16T02:20:20.332Z,68.24
2019-04-16T02:21:20.328Z,67.82
2019-04-16T02:22:20.300Z,68.03
2019-04-16T02:23:20.316Z,67.72
2019-04-16T02:24:20.285Z,67.82
2019-04-16T02:25:20.327Z,67.51
2019-04-16T02:26:20.621Z,68.13
2019-04-16T02:27:20.268Z,67.93
2019-04-16T02:28:21.781Z,67.93
2019-04-16T02:29:20.224Z,67.82
2019-04-16T02:30:20.217Z,66.89
2019-04-16T02:31:20.229Z,67.51
2019-04-16T02:32:20.250Z,68.13
2019-04-16T02:33:20.191Z,67.93
2019-04-16T02:34:20.176Z,68.48
2019-04-16T02:35:20.152Z,67.51
2019-04-16T02:36:20.149Z,67.30
2019-04-16T02:37:20.175Z,66.99
2019-04-16T02:38:20.134Z,67.61
2019-04-16T02:39:25.761Z,67.51
2019-04-16T02:40:21.096Z,68.13
2019-04-16T02:41:23.225Z,67.96
2019-04-16T02:42:20.112Z,68.07
2019-04-16T02:43:20.076Z,67.65
2019-04-16T02:44:20.074Z,67.76
2019-04-16T02:45:23.658Z,68.27
2019-04-16T02:46:20.052Z,68.48
2019-04-16T02:47:20.083Z,67.86
2019-04-16T02:48:20.017Z,67.76
2019-04-16T02:49:23.041Z,68.48
2019-04-16T02:50:20.000Z,68.07
2019-04-16T02:51:20.025Z,68.48
2019-04-16T02:52:19.988Z,68.27
2019-04-16T02:53:24.166Z,67.96
2019-04-16T02:54:20.949Z,67.79
2019-04-16T02:55:19.949Z,68.38
2019-04-16T02:56:19.959Z,67.65
2019-04-16T02:57:25.742Z,67.86
2019-04-16T02:58:20.918Z,67.96
2019-04-16T02:59:19.943Z,68.17
2019-04-16T03:00:20.545Z,68.17
2019-04-16T03:01:20.886Z,68.17
2019-04-16T03:02:22.796Z,68.20
2019-04-16T03:03:22.249Z,67.55
2019-04-16T03:04:19.854Z,67.55
2019-04-16T03:05:19.843Z,67.13
2019-04-16T03:06:19.839Z,66.99
2019-04-16T03:07:19.806Z,66.68
2019-04-16T03:08:19.821Z,67.30
2019-04-16T03:09:19.802Z,66.89
2019-04-16T03:10:19.783Z,67.65
2019-04-16T03:11:19.786Z,65.99
2019-04-16T03:12:20.991Z,66.93
2019-04-16T03:13:23.043Z,66.93
2019-04-16T03:14:19.739Z,66.72
2019-04-16T03:15:19.741Z,67.03
2019-04-16T03:16:19.743Z,67.03
2019-04-16T03:17:19.754Z,65.78
2019-04-16T03:18:19.699Z,67.44
2019-04-16T03:19:20.314Z,66.93
2019-04-16T03:20:20.834Z,67.13
2019-04-16T03:21:19.654Z,66.82
2019-04-16T03:22:19.674Z,66.68
2019-04-16T03:23:19.646Z,67.13
2019-04-16T03:24:19.639Z,66.20
2019-04-16T03:25:19.610Z,65.68
2019-04-16T03:26:19.608Z,65.78
2019-04-16T03:27:22.185Z,65.75
2019-04-16T03:28:19.591Z,66.58
2019-04-16T03:29:19.581Z,66.38
2019-04-16T03:30:19.582Z,65.96
2019-04-16T03:31:23.156Z,66.30
2019-04-16T03:32:19.550Z,66.51
2019-04-16T03:33:19.549Z,65.68
2019-04-16T03:34:22.021Z,66.72
2019-04-16T03:35:19.514Z,65.99
2019-04-16T03:36:19.499Z,67.13
2019-04-16T03:37:19.493Z,67.13
2019-04-16T03:38:19.493Z,66.51
2019-04-16T03:39:19.487Z,65.89
2019-04-16T03:40:24.759Z,65.68
2019-04-16T03:41:20.447Z,66.30
2019-04-16T03:42:19.459Z,66.30
2019-04-16T03:43:19.413Z,66.51
2019-04-16T03:44:19.401Z,65.89
2019-04-16T03:45:19.415Z,66.06
2019-04-16T03:46:19.382Z,65.89
2019-04-16T03:47:20.068Z,66.82
2019-04-16T03:48:20.685Z,66.09
2019-04-16T03:49:19.365Z,65.99
2019-04-16T03:50:19.374Z,66.47
2019-04-16T03:51:19.337Z,66.61
2019-04-16T03:52:19.326Z,65.89
2019-04-16T03:53:19.308Z,65.78
2019-04-16T03:54:22.330Z,65.99
2019-04-16T03:55:19.321Z,66.51
2019-04-16T03:56:19.305Z,66.72
2019-04-16T03:57:19.280Z,66.72
2019-04-16T03:58:19.276Z,66.93
2019-04-16T03:59:19.251Z,66.75
2019-04-16T04:00:19.247Z,66.93
2019-04-16T04:01:19.236Z,65.89
2019-04-16T04:02:22.796Z,66.41
2019-04-16T04:03:19.222Z,65.99
2019-04-16T04:04:19.193Z,66.09
2019-04-16T04:05:19.197Z,66.72
2019-04-16T04:06:19.180Z,66.02
2019-04-16T04:07:19.164Z,65.78
2019-04-16T04:08:19.164Z,66.30
2019-04-16T04:09:22.148Z,66.51
2019-04-16T04:10:30.292Z,66.33
2019-04-16T04:11:20.114Z,66.33
2019-04-16T04:12:19.106Z,65.70
2019-04-16T04:13:19.277Z,66.02
2019-04-16T04:14:22.135Z,66.22
2019-04-16T04:15:19.270Z,65.91
2019-04-16T04:16:19.079Z,67.16
2019-04-16T04:17:19.051Z,65.91
2019-04-16T04:18:19.036Z,66.54
2019-04-16T04:19:19.040Z,66.85
2019-04-16T04:20:19.344Z,66.02
2019-04-16T04:21:22.082Z,66.96
2019-04-16T04:22:19.017Z,66.96
2019-04-16T04:23:19.125Z,67.27
2019-04-16T04:24:19.030Z,66.33
2019-04-16T04:25:19.014Z,66.44
2019-04-16T04:26:19.024Z,67.06
2019-04-16T04:27:19.698Z,66.75
2019-04-16T04:28:20.561Z,67.27
2019-04-16T04:29:20.760Z,65.60
2019-04-16T04:30:19.915Z,66.75
2019-04-16T04:31:18.940Z,66.75
2019-04-16T04:32:18.894Z,66.12
2019-04-16T04:33:18.895Z,65.58
2019-04-16T04:34:18.877Z,65.81
2019-04-16T04:35:21.820Z,66.61
2019-04-16T04:36:19.824Z,66.09
2019-04-16T04:37:18.851Z,65.68
2019-04-16T04:38:18.827Z,66.61
2019-04-16T04:39:18.822Z,66.09
2019-04-16T04:40:18.807Z,65.23
2019-04-16T04:41:19.932Z,64.89
2019-04-16T04:42:19.597Z,63.72
2019-04-16T04:43:18.777Z,63.38
2019-04-16T04:44:18.770Z,62.97
2019-04-16T04:45:18.806Z,61.90
2019-04-16T04:46:18.750Z,61.25
2019-04-16T04:47:20.072Z,60.53
2019-04-16T04:48:23.373Z,60.78
2019-04-16T04:49:19.756Z,59.64
2019-04-16T04:50:18.692Z,59.00
2019-04-16T04:51:18.688Z,59.83
2019-04-16T04:52:18.686Z,58.38
2019-04-16T04:53:19.944Z,58.07
2019-04-16T04:54:22.032Z,59.10
2019-04-16T04:55:18.670Z,59.31
2019-04-16T04:56:19.532Z,59.41
2019-04-16T04:57:18.633Z,59.10
2019-04-16T04:58:18.614Z,58.45
2019-04-16T04:59:18.631Z,58.04
2019-04-16T05:00:18.599Z,57.29
2019-04-16T05:01:18.572Z,56.70
2019-04-16T05:02:18.555Z,56.67
2019-04-16T05:03:18.558Z,56.65
2019-04-16T05:04:20.347Z,55.80
2019-04-16T05:05:18.540Z,55.49
2019-04-16T05:06:18.537Z,54.74
2019-04-16T05:07:18.503Z,53.89
2019-04-16T05:08:18.507Z,53.25
2019-04-16T05:09:18.520Z,52.94
2019-04-16T05:10:18.477Z,52.94
2019-04-16T05:11:18.468Z,53.02
2019-04-16T05:12:21.375Z,52.19
2019-04-16T05:13:18.446Z,51.65
2019-04-16T05:14:18.590Z,52.27
2019-04-16T05:15:18.431Z,52.06
2019-04-16T05:16:18.408Z,51.84
2019-04-16T05:17:18.400Z,50.78
2019-04-16T05:18:18.395Z,50.78
2019-04-16T05:19:18.384Z,50.50
2019-04-16T05:20:18.380Z,51.09
2019-04-16T05:21:19.448Z,50.06
2019-04-16T05:22:21.546Z,50.89
2019-04-16T05:23:18.340Z,49.76
2019-04-16T05:24:18.351Z,49.60
2019-04-16T05:25:18.415Z,48.47
2019-04-16T05:26:18.317Z,49.60
2019-04-16T05:27:18.378Z,48.35
2019-04-16T05:28:18.361Z,48.43
2019-04-16T05:29:18.735Z,48.33
2019-04-16T05:30:21.108Z,47.79
2019-04-16T05:31:18.257Z,46.95
2019-04-16T05:32:18.260Z,46.87
2019-04-16T05:33:18.224Z,47.38
2019-04-16T05:34:18.432Z,46.67
2019-04-16T05:35:18.225Z,46.46
2019-04-16T05:36:21.127Z,46.13
2019-04-16T05:37:19.821Z,45.83
2019-04-16T05:38:20.719Z,46.05
2019-04-16T05:39:19.193Z,46.54
2019-04-16T05:40:18.149Z,46.31
2019-04-16T05:41:22.026Z,44.45
2019-04-16T05:42:18.121Z,44.43
2019-04-16T05:43:18.355Z,44.18
2019-04-16T05:44:18.112Z,43.04
2019-04-16T05:45:18.104Z,42.50
2019-04-16T05:46:18.081Z,42.00
2019-04-16T05:47:18.364Z,41.69
2019-04-16T05:48:18.585Z,41.47
2019-04-16T05:49:18.327Z,40.71
2019-04-16T05:50:18.064Z,39.47
2019-04-16T05:51:18.041Z,39.47
2019-04-16T05:52:18.014Z,39.57
2019-04-16T05:53:18.037Z,39.69
2019-04-16T05:54:17.988Z,39.67
2019-04-16T05:55:19.294Z,39.87
2019-04-16T05:56:20.269Z,38.01
2019-04-16T05:57:18.965Z,38.33
2019-04-16T05:58:17.950Z,39.25
2019-04-16T05:59:17.945Z,39.47
2019-04-16T06:00:17.934Z,39.37
2019-04-16T06:01:17.912Z,39.45
2019-04-16T06:02:18.812Z,38.64
2019-04-16T06:03:20.852Z,38.12
2019-04-16T06:04:17.929Z,39.28
2019-04-16T06:05:17.867Z,40.32
2019-04-16T06:06:17.861Z,40.95
2019-04-16T06:07:17.850Z,40.81
2019-04-16T06:08:17.867Z,39.79
2019-04-16T06:09:17.857Z,39.71
2019-04-16T06:10:19.058Z,40.95
2019-04-16T06:11:28.083Z,41.24
2019-04-16T06:12:18.794Z,41.85
2019-04-16T06:13:17.784Z,39.92
2019-04-16T06:14:19.151Z,40.32
2019-04-16T06:15:21.091Z,40.63
2019-04-16T06:16:17.805Z,39.51
2019-04-16T06:17:17.739Z,39.69
2019-04-16T06:18:18.399Z,39.90
2019-04-16T06:19:17.732Z,39.10
2019-04-16T06:20:20.729Z,40.30
2019-04-16T06:21:17.734Z,39.49
2019-04-16T06:22:17.691Z,40.01
2019-04-16T06:23:17.704Z,40.71
2019-04-16T06:24:17.658Z,40.83
2019-04-16T06:25:18.049Z,39.78
2019-04-16T06:26:17.640Z,39.76
2019-04-16T06:27:17.650Z,39.33
2019-04-16T06:28:17.618Z,37.88
2019-04-16T06:29:17.620Z,38.17
2019-04-16T06:30:17.627Z,37.85
2019-04-16T06:31:17.577Z,38.06
2019-04-16T06:32:17.582Z,36.32
2019-04-16T06:33:17.607Z,36.60
2019-04-16T06:34:17.547Z,35.77
2019-04-16T06:35:17.541Z,34.95
2019-04-16T06:36:17.561Z,35.12
2019-04-16T06:37:20.283Z,34.94
2019-04-16T06:38:17.538Z,35.27
2019-04-16T06:39:17.504Z,35.58
2019-04-16T06:40:17.482Z,36.12
2019-04-16T06:41:17.479Z,36.93
2019-04-16T06:42:20.916Z,36.43
2019-04-16T06:43:17.444Z,35.80
2019-04-16T06:44:17.441Z,35.58
2019-04-16T06:45:17.456Z,35.49
2019-04-16T06:46:17.414Z,36.58
2019-04-16T06:47:17.449Z,34.82
2019-04-16T06:48:17.405Z,34.11
2019-04-16T06:49:18.744Z,33.89
2019-04-16T06:50:30.668Z,34.70
2019-04-16T06:51:18.364Z,34.60
2019-04-16T06:52:18.107Z,34.05
2019-04-16T06:53:19.548Z,33.54
2019-04-16T06:54:18.332Z,32.71
2019-04-16T06:55:17.547Z,31.88
2019-04-16T06:56:20.012Z,32.36
2019-04-16T06:57:17.324Z,31.23
2019-04-16T06:58:18.220Z,30.86
2019-04-16T06:59:17.650Z,31.84
2019-04-16T07:00:17.268Z,30.91
2019-04-16T07:01:17.256Z,29.91
2019-04-16T07:02:17.258Z,31.12
2019-04-16T07:03:17.266Z,29.66
2019-04-16T07:04:17.204Z,29.22
2019-04-16T07:05:17.203Z,28.64
2019-04-16T07:06:17.192Z,29.06
2019-04-16T07:07:17.198Z,29.43
2019-04-16T07:08:18.514Z,28.69
2019-04-16T07:09:17.182Z,26.96
2019-04-16T07:10:17.161Z,27.42
2019-04-16T07:11:17.146Z,25.68
2019-04-16T07:12:17.215Z,24.35
2019-04-16T07:13:17.217Z,25.14
2019-04-16T07:14:17.538Z,24.22
2019-04-16T07:15:22.563Z,23.80
2019-04-16T07:16:18.342Z,23.41
2019-04-16T07:17:18.052Z,23.80
2019-04-16T07:18:17.062Z,22.09
2019-04-16T07:19:17.743Z,22.69
2019-04-16T07:20:17.069Z,21.45
2019-04-16T07:21:17.565Z,22.13
2019-04-16T07:22:20.796Z,22.22
2019-04-16T07:23:17.024Z,19.42
2019-04-16T07:24:16.988Z,20.76
2019-04-16T07:25:17.356Z,21.95
2019-04-16T07:26:17.022Z,21.26
2019-04-16T07:27:20.224Z,21.59
2019-04-16T07:28:16.953Z,22.09
2019-04-16T07:29:17.044Z,22.19
2019-04-16T07:30:20.021Z,22.28
2019-04-16T07:31:33.001Z,22.31
2019-04-16T07:32:18.006Z,22.81
2019-04-16T07:33:16.900Z,22.99
2019-04-16T07:34:16.896Z,21.86
2019-04-16T07:35:16.875Z,21.55
2019-04-16T07:36:16.852Z,22.55
2019-04-16T07:37:16.878Z,22.77
2019-04-16T07:38:16.838Z,21.88
2019-04-16T07:39:28.850Z,20.79
2019-04-16T07:40:17.831Z,22.63
2019-04-16T07:41:17.316Z,23.04
2019-04-16T07:42:21.478Z,23.25
2019-04-16T07:43:17.814Z,23.68
2019-04-16T07:44:16.775Z,23.85
2019-04-16T07:45:16.774Z,23.82
2019-04-16T07:46:16.779Z,22.20
2019-04-16T07:47:19.701Z,22.17
2019-04-16T07:48:16.746Z,21.44
2019-04-16T07:49:16.716Z,20.73
2019-04-16T07:50:16.714Z,20.11
2019-04-16T07:51:16.704Z,19.80
2019-04-16T07:52:16.717Z,20.71
2019-04-16T07:53:16.710Z,20.71
2019-04-16T07:54:18.834Z,21.01
2019-04-16T07:55:16.658Z,19.82
2019-04-16T07:56:16.639Z,20.79
2019-04-16T07:57:16.656Z,19.10
2019-04-16T07:58:16.647Z,19.18
2019-04-16T07:59:16.624Z,19.76
2019-04-16T08:00:16.603Z,17.80
2019-04-16T08:01:16.628Z,19.62
2019-04-16T08:02:17.696Z,20.04
2019-04-16T08:03:16.593Z,21.55
2019-04-16T08:04:25.526Z,20.45
2019-04-16T08:05:17.558Z,19.95
2019-04-16T08:06:16.545Z,20.84
2019-04-16T08:07:20.140Z,19.54
2019-04-16T08:08:16.518Z,19.83
2019-04-16T08:09:16.518Z,20.53
2019-04-16T08:10:16.915Z,19.61
2019-04-16T08:11:16.499Z,19.93
2019-04-16T08:12:29.385Z,20.65
2019-04-16T08:13:17.489Z,19.24
2019-04-16T08:14:16.466Z,19.75
2019-04-16T08:15:16.452Z,19.93
2019-04-16T08:16:16.438Z,19.33
2019-04-16T08:17:16.436Z,19.64
2019-04-16T08:18:16.420Z,19.93
2019-04-16T08:19:16.414Z,19.62
2019-04-16T08:20:20.022Z,19.92
2019-04-16T08:21:16.367Z,19.40
2019-04-16T08:22:16.708Z,18.70
2019-04-16T08:23:16.631Z,19.20
2019-04-16T08:24:16.379Z,19.31
2019-04-16T08:25:16.337Z,19.21
2019-04-16T08:26:16.324Z,18.71
2019-04-16T08:27:19.059Z,19.29
2019-04-16T08:28:16.291Z,18.78
2019-04-16T08:29:16.311Z,18.69
2019-04-16T08:30:16.282Z,19.87
2019-04-16T08:31:16.262Z,18.98
2019-04-16T08:32:17.031Z,18.99
2019-04-16T08:33:16.261Z,19.59
2019-04-16T08:34:16.233Z,19.08
2019-04-16T08:35:16.251Z,17.76
2019-04-16T08:36:16.228Z,18.44
2019-04-16T08:37:16.210Z,17.46
2019-04-16T08:38:16.199Z,17.75
2019-04-16T08:39:16.174Z,16.47
2019-04-16T08:40:16.191Z,16.89
2019-04-16T08:41:19.712Z,17.21
2019-04-16T08:42:16.141Z,17.51
2019-04-16T08:43:16.141Z,17.98
2019-04-16T08:44:16.130Z,17.18
2019-04-16T08:45:16.113Z,17.37
2019-04-16T08:46:16.121Z,16.75
2019-04-16T08:47:16.097Z,16.27
2019-04-16T08:48:18.376Z,17.49
2019-04-16T08:49:16.086Z,17.77
2019-04-16T08:50:16.094Z,16.98
2019-04-16T08:51:29.362Z,17.40
2019-04-16T08:52:17.046Z,17.81
2019-04-16T08:53:16.035Z,18.00
2019-04-16T08:54:18.268Z,17.02
2019-04-16T08:55:16.021Z,18.02
2019-04-16T08:56:16.031Z,18.39
2019-04-16T08:57:15.994Z,16.60
2019-04-16T08:58:15.986Z,17.00
2019-04-16T08:59:15.980Z,17.41
2019-04-16T09:00:15.958Z,17.46
2019-04-16T09:01:18.809Z,18.08
2019-04-16T09:02:16.958Z,18.67
2019-04-16T09:03:15.929Z,17.16
2019-04-16T09:04:16.167Z,17.73
2019-04-16T09:05:15.897Z,16.11
2019-04-16T09:06:15.914Z,17.02
2019-04-16T09:07:19.627Z,16.51
2019-04-16T09:08:15.910Z,15.59
2019-04-16T09:09:18.399Z,15.31
2019-04-16T09:10:19.319Z,16.90
2019-04-16T09:11:23.579Z,15.20
2019-04-16T09:12:16.850Z,15.31
2019-04-16T09:13:15.911Z,16.52
2019-04-16T09:14:16.826Z,17.33
2019-04-16T09:15:15.802Z,16.53
2019-04-16T09:16:15.811Z,16.71
2019-04-16T09:17:15.782Z,15.92
2019-04-16T09:18:15.766Z,15.64
2019-04-16T09:19:15.793Z,15.04
2019-04-16T09:20:15.763Z,16.06
2019-04-16T09:21:15.746Z,17.36
2019-04-16T09:22:17.080Z,16.25
2019-04-16T09:23:15.710Z,16.26
2019-04-16T09:24:15.715Z,15.75
2019-04-16T09:25:15.689Z,17.05
2019-04-16T09:26:22.302Z,16.93
2019-04-16T09:27:16.749Z,15.34
2019-04-16T09:28:25.356Z,16.03
2019-04-16T09:29:16.683Z,15.34
2019-04-16T09:30:17.820Z,17.73
2019-04-16T09:31:15.659Z,16.24
2019-04-16T09:32:15.614Z,17.34
2019-04-16T09:33:15.613Z,16.04
2019-04-16T09:34:15.628Z,16.33
2019-04-16T09:35:19.873Z,15.53
2019-04-16T09:36:15.572Z,15.95
2019-04-16T09:37:15.566Z,17.07
2019-04-16T09:38:15.558Z,16.77
2019-04-16T09:39:15.550Z,16.78
2019-04-16T09:40:18.087Z,16.59
2019-04-16T09:41:15.723Z,16.60
2019-04-16T09:42:15.522Z,17.73
2019-04-16T09:43:17.695Z,18.52
2019-04-16T09:44:15.496Z,18.12
2019-04-16T09:45:15.684Z,17.33
2019-04-16T09:46:21.299Z,18.23
2019-04-16T09:47:16.472Z,18.02
2019-04-16T09:48:15.482Z,18.71
2019-04-16T09:49:15.433Z,17.41
2019-04-16T09:50:15.454Z,18.63
2019-04-16T09:51:18.675Z,18.12
2019-04-16T09:52:15.414Z,18.21
2019-04-16T09:53:15.401Z,17.69
2019-04-16T09:54:15.402Z,17.50
2019-04-16T09:55:18.862Z,17.90
2019-04-16T09:56:15.388Z,16.69
2019-04-16T09:57:15.338Z,17.00
2019-04-16T09:58:15.329Z,16.99
2019-04-16T09:59:16.761Z,16.68
2019-04-16T10:00:17.135Z,17.39
2019-04-16T10:01:15.304Z,17.60
2019-04-16T10:02:15.325Z,17.10
2019-04-16T10:03:15.284Z,17.48
2019-04-16T10:04:15.278Z,17.55
2019-04-16T10:05:15.288Z,17.05
2019-04-16T10:06:15.286Z,16.03
2019-04-16T10:07:15.252Z,16.22
2019-04-16T10:08:15.262Z,15.61
2019-04-16T10:09:20.518Z,15.61
2019-04-16T10:10:16.231Z,15.71
2019-04-16T10:11:18.417Z,15.74
2019-04-16T10:12:15.196Z,16.84
2019-04-16T10:13:15.194Z,17.32
2019-04-16T10:14:15.377Z,16.61
2019-04-16T10:15:15.163Z,17.02
2019-04-16T10:16:15.147Z,16.51
2019-04-16T10:17:15.177Z,16.93
2019-04-16T10:18:15.149Z,17.55
2019-04-16T10:19:15.121Z,16.65
2019-04-16T10:20:15.111Z,16.84
2019-04-16T10:21:18.595Z,17.34
2019-04-16T10:22:15.106Z,16.82
2019-04-16T10:23:15.080Z,16.91
2019-04-16T10:24:15.071Z,16.71
2019-04-16T10:25:15.087Z,15.62
2019-04-16T10:26:15.054Z,15.82
2019-04-16T10:27:15.054Z,15.82
2019-04-16T10:28:15.039Z,16.45
2019-04-16T10:29:15.197Z,16.97
2019-04-16T10:30:14.996Z,17.40
2019-04-16T10:31:14.993Z,17.52
2019-04-16T10:32:17.617Z,18.91
2019-04-16T10:33:15.071Z,17.69
2019-04-16T10:34:14.991Z,17.35
2019-04-16T10:35:15.212Z,16.24
2019-04-16T10:36:15.038Z,16.13
2019-04-16T10:37:14.995Z,15.80
2019-04-16T10:38:14.947Z,15.83
2019-04-16T10:39:14.935Z,16.46
2019-04-16T10:40:15.042Z,16.79
2019-04-16T10:41:14.880Z,17.60
2019-04-16T10:42:14.889Z,17.69
2019-04-16T10:43:14.901Z,18.28
2019-04-16T10:44:14.869Z,16.97
2019-04-16T10:45:14.864Z,16.97
2019-04-16T10:46:14.851Z,16.35
2019-04-16T10:47:16.668Z,14.84
2019-04-16T10:48:14.816Z,16.36
2019-04-16T10:49:14.851Z,16.26
2019-04-16T10:50:14.798Z,15.77
2019-04-16T10:51:15.629Z,16.08
2019-04-16T10:52:14.779Z,17.69
2019-04-16T10:53:14.771Z,16.59
2019-04-16T10:54:14.786Z,17.19
2019-04-16T10:55:14.742Z,16.98
2019-04-16T10:56:14.779Z,16.97
2019-04-16T10:57:14.730Z,16.88
2019-04-16T10:58:14.713Z,17.40
2019-04-16T10:59:14.696Z,18.29
2019-04-16T11:00:14.731Z,17.38
2019-04-16T11:01:14.682Z,17.09
2019-04-16T11:02:14.662Z,17.18
2019-04-16T11:03:14.696Z,16.86
2019-04-16T11:04:14.672Z,17.18
2019-04-16T11:05:15.404Z,16.99
2019-04-16T11:06:14.670Z,17.29
2019-04-16T11:07:14.611Z,17.39
2019-04-16T11:08:14.613Z,17.49
2019-04-16T11:09:14.657Z,16.98
2019-04-16T11:10:14.609Z,16.55
2019-04-16T11:11:14.572Z,15.05
2019-04-16T11:12:14.567Z,15.16
2019-04-16T11:13:14.557Z,15.07
2019-04-16T11:14:14.589Z,15.37
2019-04-16T11:15:14.553Z,15.80
2019-04-16T11:16:14.655Z,16.61
2019-04-16T11:17:14.523Z,17.22
2019-04-16T11:18:14.521Z,16.94
2019-04-16T11:19:14.492Z,17.14
2019-04-16T11:20:14.495Z,16.63
2019-04-16T11:21:14.494Z,17.52
2019-04-16T11:22:14.476Z,17.11
2019-04-16T11:23:14.466Z,16.41
2019-04-16T11:24:15.765Z,17.02
2019-04-16T11:25:14.502Z,17.52
2019-04-16T11:26:14.422Z,17.53
2019-04-16T11:27:14.414Z,17.13
2019-04-16T11:28:14.568Z,17.75
2019-04-16T11:29:14.400Z,16.53
2019-04-16T11:30:14.430Z,17.24
2019-04-16T11:31:14.417Z,16.94
2019-04-16T11:32:14.393Z,16.95
2019-04-16T11:33:14.458Z,16.85
2019-04-16T11:34:14.344Z,16.64
2019-04-16T11:35:16.953Z,16.74
2019-04-16T11:36:19.360Z,16.55
2019-04-16T11:37:15.317Z,17.05
2019-04-16T11:38:17.145Z,17.05
2019-04-16T11:39:14.284Z,16.62
2019-04-16T11:40:14.263Z,16.30
2019-04-16T11:41:14.299Z,16.50
2019-04-16T11:42:14.259Z,15.99
2019-04-16T11:43:14.248Z,14.61
2019-04-16T11:44:16.828Z,15.04
2019-04-16T11:45:14.229Z,15.85
2019-04-16T11:46:14.246Z,16.45
2019-04-16T11:47:14.230Z,16.54
2019-04-16T11:48:14.228Z,17.03
2019-04-16T11:49:14.200Z,16.62
2019-04-16T11:50:14.182Z,16.81
2019-04-16T11:51:14.150Z,16.20
2019-04-16T11:52:14.140Z,16.00
2019-04-16T11:53:14.491Z,15.59
2019-04-16T11:54:14.202Z,14.77
2019-04-16T11:55:14.140Z,15.58
2019-04-16T11:56:14.115Z,15.70
2019-04-16T11:57:14.093Z,16.41
2019-04-16T11:58:14.246Z,15.72
2019-04-16T11:59:14.122Z,16.33
2019-04-16T12:00:14.089Z,17.05
2019-04-16T12:01:14.070Z,17.25
2019-04-16T12:02:14.284Z,17.75
2019-04-16T12:03:14.064Z,17.03
2019-04-16T12:04:15.299Z,17.42
2019-04-16T12:05:14.056Z,16.41
2019-04-16T12:06:27.384Z,16.71
2019-04-16T12:07:15.029Z,15.59
2019-04-16T12:08:14.023Z,15.29
2019-04-16T12:09:13.975Z,15.67
2019-04-16T12:10:13.962Z,14.69
2019-04-16T12:11:13.969Z,15.78
2019-04-16T12:12:13.923Z,15.89
2019-04-16T12:13:13.964Z,16.67
2019-04-16T12:14:28.887Z,16.15
2019-04-16T12:15:14.906Z,15.55
2019-04-16T12:16:14.035Z,15.16
2019-04-16T12:17:13.878Z,15.16
2019-04-16T12:18:13.860Z,14.94
2019-04-16T12:19:13.882Z,14.03
2019-04-16T12:20:13.855Z,14.02
2019-04-16T12:21:13.911Z,14.13
2019-04-16T12:22:13.830Z,14.83
2019-04-16T12:23:13.847Z,15.16
2019-04-16T12:24:13.802Z,15.25
2019-04-16T12:25:13.844Z,15.26
2019-04-16T12:26:13.829Z,14.90
2019-04-16T12:27:13.777Z,17.13
2019-04-16T12:28:13.777Z,17.33
2019-04-16T12:29:13.819Z,18.66
2019-04-16T12:30:13.780Z,19.07
2019-04-16T12:31:16.606Z,19.69
2019-04-16T12:32:13.733Z,20.00
2019-04-16T12:33:14.531Z,20.01
2019-04-16T12:34:13.755Z,19.82
2019-04-16T12:35:13.731Z,20.75
2019-04-16T12:36:14.608Z,21.17
2019-04-16T12:37:13.718Z,21.08
2019-04-16T12:38:17.953Z,20.58
2019-04-16T12:39:18.796Z,21.29
2019-04-16T12:40:19.021Z,22.72
2019-04-16T12:41:13.654Z,22.93
2019-04-16T12:42:13.635Z,22.73
2019-04-16T12:43:15.982Z,21.72
2019-04-16T12:44:13.889Z,23.35
2019-04-16T12:45:13.697Z,22.34
2019-04-16T12:46:13.579Z,22.94
2019-04-16T12:47:13.619Z,21.84
2019-04-16T12:48:13.567Z,22.47
2019-04-16T12:49:13.557Z,23.80
2019-04-16T12:50:16.567Z,23.29
2019-04-16T12:51:13.526Z,23.09
2019-04-16T12:52:17.109Z,23.49